Calder, ID

12:00 AM PDT on August 28, 2014 (GMT -0700)
ranch land , mountains | Change Station
CLOSE
Current Station
Personal Weather Station
Location: Fernwood, ID
Elevation: 2835 ft
Nearby Weather Stations

Elev 2835 ft 47.14 °N, 116.40 °W | Updated 5 seconds ago

Clear
Clear
55.9 °F
Feels Like 55.9 °F
N
0.0
Wind Variable Wind from East
Gusts 0.0 mph

Today
High -- | Low -- °F
--% Chance of Precip.
Yesterday
High -- | Low -- °F
Precip. -- in
5:58 AM 7:32 PM
Waxing Crescent, 7% visible
Pressure 29.95 in
Visibility 10.0 miles
Clouds Clear
Dew Point 52 °F
Humidity 86%
Rainfall 0.00 in
Snow Depth Not available.
UV 0 out of 12
Pollen 7.70 out of 12
Air Quality Not available.
Flu Activity Not available.
METAR KCOE 280655Z AUTO 09003KT 10SM CLR 19/11 A2995 RMK AO1

More Conditions Fewer Conditions

Pressure 29.95 in
Visibility 10.0 miles
Clouds Clear
Dew Point 52 °F
Humidity 86%
Rainfall 0.00 in
Snow Depth Not available.
UV 0 out of 12
Pollen 7.70 out of 12
Air Quality Not available.
Flu Activity Not available.
METAR KCOE 280655Z AUTO 09003KT 10SM CLR 19/11 A2995 RMK AO1

More Conditions Fewer Conditions

10-Day Weather Forecast

Almanac

Astronomy

Aug. 28, 2014 Rise Set
Actual Time 5:58 AM PDT 7:32 PM PDT
Civil Twilight 5:26 AM PDT 8:04 PM PDT
Nautical Twilight 4:47 AM PDT 8:43 PM PDT
Astronomical Twilight 4:05 AM PDT 9:25 PM PDT
Moon 9:10 AM PDT 8:42 PM PDT
Length of Visible Light 14h 37m
Length of Day
13h 33m
Tomorrow will be 3m 14s shorter.
Waxing Crescent, 7% of the Moon is Illuminated
Today
Waxing Crescent
Sep 2
First Quarter
Sep 8
Full
Sep 15
Last Quarter
Sep 24
New

Today's Extremes

State Highs State Lows

Community

WunderPhotos

Upload Photos

1,747,912 photos uploaded!

Nearby

Snow Depth

Station Depth Elevation
Mica Creek 0 in 4750 ft
Lost Lake 0 in 6110 ft
Sunset 0 in 5540 ft
Lookout 0 in 5140 ft
Humboldt Gulch 2 in 4250 ft

Earthquake Activity

City Distance Mag. Time & Date
No recent earthquake activity has been reported nearby.
Minimum magnitude displayed is 2.5.

Coastal Water Temperatures

Place Temperature
No Stations Reporting

Nearby Weather Stations